TimeMDT,TemperatureF,Dew PointF,Humidity,Sea Level PressureIn,VisibilityMPH,Wind Direction,Wind SpeedMPH,Gust SpeedMPH,PrecipitationIn,Events,Conditions,WindDirDegrees,DateUTC
12:11 AM,39.2,37.4,93,29.77,10.0,West,5.8,-,N/A,,Overcast,270,2013-09-25 06:11:00
12:47 AM,39.2,37.4,93,29.77,10.0,WNW,6.9,-,N/A,,Overcast,290,2013-09-25 06:47:00
12:51 AM,39.0,37.0,93,29.76,10.0,WNW,4.6,-,N/A,,Overcast,290,2013-09-25 06:51:00
1:51 AM,39.0,36.0,89,29.76,10.0,Calm,Calm,-,N/A,,Overcast,0,2013-09-25 07:51:00
2:51 AM,37.9,36.0,93,29.74,10.0,Calm,Calm,-,N/A,,Overcast,0,2013-09-25 08:51:00
3:04 AM,37.4,35.6,93,29.74,10.0,Calm,Calm,-,N/A,,Overcast,0,2013-09-25 09:04:00
3:21 AM,37.4,35.6,93,29.73,10.0,Calm,Calm,-,N/A,,Overcast,0,2013-09-25 09:21:00
3:51 AM,37.0,35.1,93,29.73,10.0,WSW,4.6,-,N/A,,Overcast,240,2013-09-25 09:51:00
4:21 AM,37.4,35.6,93,29.73,10.0,West,4.6,-,N/A,,Overcast,280,2013-09-25 10:21:00
4:40 AM,37.4,35.6,93,29.72,10.0,Calm,Calm,-,N/A,,Overcast,0,2013-09-25 10:40:00
4:48 AM,37.4,35.6,93,29.71,10.0,NW,4.6,-,0.01,Rain,Light Rain,320,2013-09-25 10:48:00
4:51 AM,37.0,35.1,93,29.71,10.0,Calm,Calm,-,0.01,Rain,Light Rain,0,2013-09-25 10:51:00
5:04 AM,37.4,35.6,93,29.71,10.0,Calm,Calm,-,0.00,Rain,Light Rain,0,2013-09-25 11:04:00
5:12 AM,37.4,35.6,93,29.71,10.0,West,3.5,-,0.00,Rain,Light Rain,280,2013-09-25 11:12:00
5:51 AM,37.0,35.1,93,29.70,10.0,West,4.6,-,0.00,,Overcast,270,2013-09-25 11:51:00
6:17 AM,37.4,35.6,93,29.69,10.0,NW,3.5,-,N/A,,Overcast,320,2013-09-25 12:17:00
6:51 AM,37.0,35.1,93,29.68,10.0,WNW,3.5,-,N/A,,Overcast,290,2013-09-25 12:51:00
7:07 AM,35.6,33.8,93,29.68,10.0,WNW,4.6,-,N/A,,Mostly Cloudy,290,2013-09-25 13:07:00
7:30 AM,35.6,33.8,93,29.68,10.0,WNW,5.8,-,N/A,,Scattered Clouds,290,2013-09-25 13:30:00
7:47 AM,35.6,33.8,93,29.68,10.0,Calm,Calm,-,N/A,,Mostly Cloudy,0,2013-09-25 13:47:00
7:51 AM,36.0,34.0,93,29.69,10.0,Calm,Calm,-,N/A,,Overcast,0,2013-09-25 13:51:00
8:47 AM,37.4,35.6,93,29.69,10.0,West,3.5,-,N/A,,Overcast,260,2013-09-25 14:47:00
8:51 AM,37.0,35.1,93,29.69,10.0,Calm,Calm,-,N/A,,Overcast,0,2013-09-25 14:51:00
9:51 AM,37.9,35.1,89,29.69,10.0,West,4.6,-,N/A,,Overcast,280,2013-09-25 15:51:00
10:51 AM,39.0,36.0,89,29.69,10.0,WNW,8.1,-,0.00,Rain,Light Rain,290,2013-09-25 16:51:00
11:20 AM,39.2,35.6,87,29.68,10.0,West,8.1,-,0.01,Rain,Light Rain,280,2013-09-25 17:20:00
11:51 AM,39.0,36.0,89,29.68,10.0,West,9.2,17.3,0.01,,Overcast,270,2013-09-25 17:51:00
12:17 PM,41.0,37.4,87,29.68,10.0,West,9.2,-,N/A,,Overcast,280,2013-09-25 18:17:00
12:51 PM,41.0,36.0,82,29.68,10.0,West,10.4,-,N/A,,Overcast,270,2013-09-25 18:51:00
1:45 PM,39.2,35.6,87,29.68,10.0,West,11.5,-,0.00,Rain,Light Rain,280,2013-09-25 19:45:00
1:51 PM,41.0,37.0,86,29.68,10.0,West,12.7,-,0.00,Rain,Light Rain,270,2013-09-25 19:51:00
2:51 PM,42.1,37.0,82,29.69,10.0,WNW,8.1,-,0.00,,Overcast,290,2013-09-25 20:51:00
3:51 PM,42.1,35.1,76,29.71,10.0,NNW,6.9,-,0.00,Rain,Light Rain,330,2013-09-25 21:51:00
4:38 PM,42.8,35.6,76,29.71,10.0,WNW,5.8,-,0.00,,Overcast,300,2013-09-25 22:38:00
4:44 PM,42.8,35.6,76,29.71,10.0,WNW,5.8,-,0.00,,Overcast,300,2013-09-25 22:44:00
4:51 PM,42.1,36.0,79,29.72,10.0,WNW,8.1,-,0.00,,Overcast,300,2013-09-25 22:51:00
5:51 PM,41.0,35.1,79,29.74,10.0,WNW,8.1,-,0.00,,Overcast,290,2013-09-25 23:51:00
6:51 PM,39.9,35.1,83,29.75,10.0,WNW,9.2,-,N/A,,Overcast,290,2013-09-26 00:51:00
7:15 PM,39.2,33.8,81,29.74,10.0,West,8.1,-,N/A,,Overcast,280,2013-09-26 01:15:00
7:51 PM,37.9,34.0,86,29.78,10.0,WNW,6.9,-,N/A,,Overcast,290,2013-09-26 01:51:00
8:51 PM,37.9,34.0,86,29.78,10.0,WNW,6.9,-,N/A,,Overcast,290,2013-09-26 02:51:00
9:51 PM,37.9,33.1,83,29.78,10.0,WNW,5.8,-,0.00,,Overcast,290,2013-09-26 03:51:00
10:51 PM,37.9,33.1,83,29.77,10.0,NW,4.6,-,0.00,Rain,Light Rain,320,2013-09-26 04:51:00
11:22 PM,37.4,33.8,87,29.76,10.0,WNW,8.1,-,0.00,,Overcast,300,2013-09-26 05:22:00
11:44 PM,37.4,33.8,87,29.76,10.0,WNW,6.9,-,0.00,Rain,Light Rain,290,2013-09-26 05:44:00
11:51 PM,37.0,34.0,89,29.78,10.0,West,6.9,-,0.00,Rain,Light Rain,280,2013-09-26 05:51:00